sensor_id;sensor_type;location;lat;lon;timestamp;P1;durP1;ratioP1;P2;durP2;ratioP2
23543;SDS011;11950;51.230;4.012;2023-08-12T00:00:59;7.72;;;4.00;;
23543;SDS011;11950;51.230;4.012;2023-08-12T00:03:25;4.43;;;3.67;;
23543;SDS011;11950;51.230;4.012;2023-08-12T00:05:53;6.90;;;4.20;;
23543;SDS011;11950;51.230;4.012;2023-08-12T00:11:57;6.90;;;4.03;;
23543;SDS011;11950;51.230;4.012;2023-08-12T00:15:23;8.48;;;4.35;;
23543;SDS011;11950;51.230;4.012;2023-08-12T00:18:11;6.53;;;4.47;;
23543;SDS011;11950;51.230;4.012;2023-08-12T00:20:40;9.18;;;4.68;;
23543;SDS011;11950;51.230;4.012;2023-08-12T00:23:29;5.57;;;4.40;;
23543;SDS011;11950;51.230;4.012;2023-08-12T00:25:58;5.47;;;4.90;;
23543;SDS011;11950;51.230;4.012;2023-08-12T00:28:24;12.25;;;4.50;;
23543;SDS011;11950;51.230;4.012;2023-08-12T00:30:51;9.00;;;5.38;;
23543;SDS011;11950;51.230;4.012;2023-08-12T00:33:17;9.32;;;4.75;;
23543;SDS011;11950;51.230;4.012;2023-08-12T00:35:44;8.23;;;5.38;;
23543;SDS011;11950;51.230;4.012;2023-08-12T00:38:10;8.10;;;5.65;;
23543;SDS011;11950;51.230;4.012;2023-08-12T00:40:41;9.65;;;5.57;;
23543;SDS011;11950;51.230;4.012;2023-08-12T00:43:07;9.27;;;5.43;;
23543;SDS011;11950;51.230;4.012;2023-08-12T00:45:37;9.73;;;5.80;;
23543;SDS011;11950;51.230;4.012;2023-08-12T00:48:04;9.20;;;5.15;;
23543;SDS011;11950;51.230;4.012;2023-08-12T00:50:34;6.72;;;5.10;;
23543;SDS011;11950;51.230;4.012;2023-08-12T00:53:02;6.47;;;5.22;;
23543;SDS011;11950;51.230;4.012;2023-08-12T00:55:32;8.80;;;5.18;;
23543;SDS011;11950;51.230;4.012;2023-08-12T00:57:59;8.95;;;5.60;;
23543;SDS011;11950;51.230;4.012;2023-08-12T01:00:27;10.48;;;5.28;;
23543;SDS011;11950;51.230;4.012;2023-08-12T01:02:53;8.27;;;5.00;;
23543;SDS011;11950;51.230;4.012;2023-08-12T01:05:22;7.03;;;4.55;;
23543;SDS011;11950;51.230;4.012;2023-08-12T01:07:48;10.52;;;4.88;;
23543;SDS011;11950;51.230;4.012;2023-08-12T01:10:16;7.10;;;4.60;;
23543;SDS011;11950;51.230;4.012;2023-08-12T01:12:52;7.30;;;4.88;;
23543;SDS011;11950;51.230;4.012;2023-08-12T01:15:48;9.10;;;4.68;;
23543;SDS011;11950;51.230;4.012;2023-08-12T01:18:18;9.13;;;4.75;;
23543;SDS011;11950;51.230;4.012;2023-08-12T01:20:44;7.70;;;4.85;;
23543;SDS011;11950;51.230;4.012;2023-08-12T01:23:15;8.10;;;4.80;;
23543;SDS011;11950;51.230;4.012;2023-08-12T01:25:42;9.82;;;4.97;;
23543;SDS011;11950;51.230;4.012;2023-08-12T01:28:08;10.88;;;4.68;;
23543;SDS011;11950;51.230;4.012;2023-08-12T01:30:50;7.03;;;5.13;;
23543;SDS011;11950;51.230;4.012;2023-08-12T01:36:27;11.02;;;4.97;;
23543;SDS011;11950;51.230;4.012;2023-08-12T01:38:57;10.77;;;4.65;;
23543;SDS011;11950;51.230;4.012;2023-08-12T01:41:25;7.55;;;4.55;;
23543;SDS011;11950;51.230;4.012;2023-08-12T01:43:52;8.38;;;5.03;;
23543;SDS011;11950;51.230;4.012;2023-08-12T01:46:18;7.60;;;4.30;;
23543;SDS011;11950;51.230;4.012;2023-08-12T01:48:44;6.70;;;4.65;;
23543;SDS011;11950;51.230;4.012;2023-08-12T01:51:11;8.45;;;4.60;;
23543;SDS011;11950;51.230;4.012;2023-08-12T01:53:37;10.68;;;5.18;;
23543;SDS011;11950;51.230;4.012;2023-08-12T01:56:04;6.82;;;4.43;;
23543;SDS011;11950;51.230;4.012;2023-08-12T01:58:30;9.18;;;4.65;;
23543;SDS011;11950;51.230;4.012;2023-08-12T02:00:57;10.25;;;5.10;;
23543;SDS011;11950;51.230;4.012;2023-08-12T02:03:23;6.43;;;4.72;;
23543;SDS011;11950;51.230;4.012;2023-08-12T02:05:50;8.18;;;4.40;;
23543;SDS011;11950;51.230;4.012;2023-08-12T02:08:17;9.88;;;4.82;;
23543;SDS011;11950;51.230;4.012;2023-08-12T02:10:43;9.85;;;5.35;;
23543;SDS011;11950;51.230;4.012;2023-08-12T02:13:09;7.90;;;4.93;;
23543;SDS011;11950;51.230;4.012;2023-08-12T02:15:36;9.23;;;4.70;;
23543;SDS011;11950;51.230;4.012;2023-08-12T02:18:04;7.93;;;5.00;;
23543;SDS011;11950;51.230;4.012;2023-08-12T02:20:30;8.02;;;4.38;;
23543;SDS011;11950;51.230;4.012;2023-08-12T02:22:57;5.72;;;4.70;;
23543;SDS011;11950;51.230;4.012;2023-08-12T02:25:23;10.35;;;5.00;;
23543;SDS011;11950;51.230;4.012;2023-08-12T02:27:49;4.85;;;4.15;;
23543;SDS011;11950;51.230;4.012;2023-08-12T02:30:15;5.93;;;4.32;;
23543;SDS011;11950;51.230;4.012;2023-08-12T02:32:42;7.70;;;4.57;;
23543;SDS011;11950;51.230;4.012;2023-08-12T02:35:09;8.98;;;4.35;;
23543;SDS011;11950;51.230;4.012;2023-08-12T02:37:36;9.10;;;4.40;;
23543;SDS011;11950;51.230;4.012;2023-08-12T02:40:02;8.63;;;4.18;;
23543;SDS011;11950;51.230;4.012;2023-08-12T02:42:30;8.90;;;4.90;;
23543;SDS011;11950;51.230;4.012;2023-08-12T02:44:56;7.70;;;4.30;;
23543;SDS011;11950;51.230;4.012;2023-08-12T02:47:22;11.38;;;4.57;;
23543;SDS011;11950;51.230;4.012;2023-08-12T02:49:49;7.75;;;4.80;;
23543;SDS011;11950;51.230;4.012;2023-08-12T02:52:15;10.30;;;5.25;;
23543;SDS011;11950;51.230;4.012;2023-08-12T02:54:42;13.07;;;4.63;;
23543;SDS011;11950;51.230;4.012;2023-08-12T02:57:08;9.25;;;4.35;;
23543;SDS011;11950;51.230;4.012;2023-08-12T02:59:34;9.00;;;4.82;;
23543;SDS011;11950;51.230;4.012;2023-08-12T03:02:01;11.48;;;5.18;;
23543;SDS011;11950;51.230;4.012;2023-08-12T03:04:28;8.48;;;5.20;;
23543;SDS011;11950;51.230;4.012;2023-08-12T03:06:55;9.48;;;5.30;;
23543;SDS011;11950;51.230;4.012;2023-08-12T03:09:21;8.85;;;4.60;;
23543;SDS011;11950;51.230;4.012;2023-08-12T03:11:48;11.48;;;5.07;;
23543;SDS011;11950;51.230;4.012;2023-08-12T03:14:14;6.07;;;4.75;;
23543;SDS011;11950;51.230;4.012;2023-08-12T03:16:41;5.93;;;4.18;;
23543;SDS011;11950;51.230;4.012;2023-08-12T03:19:07;6.45;;;4.28;;
23543;SDS011;11950;51.230;4.012;2023-08-12T03:21:33;7.47;;;4.43;;
23543;SDS011;11950;51.230;4.012;2023-08-12T03:24:00;8.52;;;4.38;;
23543;SDS011;11950;51.230;4.012;2023-08-12T03:26:26;5.95;;;4.38;;
23543;SDS011;11950;51.230;4.012;2023-08-12T03:28:55;6.53;;;4.38;;
23543;SDS011;11950;51.230;4.012;2023-08-12T03:31:21;9.45;;;5.35;;
23543;SDS011;11950;51.230;4.012;2023-08-12T03:33:48;5.60;;;4.25;;
23543;SDS011;11950;51.230;4.012;2023-08-12T03:36:15;6.30;;;4.10;;
23543;SDS011;11950;51.230;4.012;2023-08-12T03:38:41;8.55;;;4.15;;
23543;SDS011;11950;51.230;4.012;2023-08-12T03:41:11;4.97;;;4.35;;
23543;SDS011;11950;51.230;4.012;2023-08-12T03:43:38;7.15;;;3.83;;
23543;SDS011;11950;51.230;4.012;2023-08-12T03:46:05;7.07;;;4.38;;
23543;SDS011;11950;51.230;4.012;2023-08-12T03:48:31;6.45;;;4.30;;
23543;SDS011;11950;51.230;4.012;2023-08-12T03:50:59;7.30;;;4.80;;
23543;SDS011;11950;51.230;4.012;2023-08-12T03:53:25;6.07;;;4.32;;
23543;SDS011;11950;51.230;4.012;2023-08-12T03:55:53;7.57;;;4.80;;
23543;SDS011;11950;51.230;4.012;2023-08-12T03:58:20;5.57;;;4.70;;
23543;SDS011;11950;51.230;4.012;2023-08-12T04:00:46;7.95;;;5.45;;
23543;SDS011;11950;51.230;4.012;2023-08-12T04:03:14;6.40;;;4.35;;
23543;SDS011;11950;51.230;4.012;2023-08-12T04:05:50;5.00;;;4.47;;
23543;SDS011;11950;51.230;4.012;2023-08-12T04:08:22;6.50;;;4.20;;
23543;SDS011;11950;51.230;4.012;2023-08-12T04:10:49;9.43;;;5.00;;
23543;SDS011;11950;51.230;4.012;2023-08-12T04:13:16;5.03;;;4.30;;
23543;SDS011;11950;51.230;4.012;2023-08-12T04:15:42;6.72;;;4.97;;
23543;SDS011;11950;51.230;4.012;2023-08-12T04:18:13;6.93;;;4.93;;
23543;SDS011;11950;51.230;4.012;2023-08-12T04:20:40;7.88;;;4.85;;
23543;SDS011;11950;51.230;4.012;2023-08-12T04:23:06;7.05;;;4.80;;
23543;SDS011;11950;51.230;4.012;2023-08-12T04:25:32;7.88;;;4.78;;
23543;SDS011;11950;51.230;4.012;2023-08-12T04:27:59;6.82;;;4.80;;
23543;SDS011;11950;51.230;4.012;2023-08-12T04:30:25;8.35;;;4.65;;
23543;SDS011;11950;51.230;4.012;2023-08-12T04:32:52;8.43;;;4.30;;
23543;SDS011;11950;51.230;4.012;2023-08-12T04:35:18;7.43;;;4.65;;
23543;SDS011;11950;51.230;4.012;2023-08-12T04:37:45;5.47;;;4.97;;
23543;SDS011;11950;51.230;4.012;2023-08-12T04:40:11;6.38;;;4.82;;
23543;SDS011;11950;51.230;4.012;2023-08-12T04:42:37;5.70;;;4.90;;
23543;SDS011;11950;51.230;4.012;2023-08-12T04:45:05;5.32;;;4.00;;
23543;SDS011;11950;51.230;4.012;2023-08-12T04:47:32;6.03;;;4.70;;
23543;SDS011;11950;51.230;4.012;2023-08-12T04:49:59;6.53;;;3.90;;
23543;SDS011;11950;51.230;4.012;2023-08-12T04:52:26;9.65;;;3.85;;
23543;SDS011;11950;51.230;4.012;2023-08-12T04:54:53;5.68;;;4.03;;
23543;SDS011;11950;51.230;4.012;2023-08-12T04:57:21;8.95;;;3.78;;
23543;SDS011;11950;51.230;4.012;2023-08-12T04:59:47;6.53;;;3.92;;
23543;SDS011;11950;51.230;4.012;2023-08-12T05:02:15;5.07;;;3.20;;
23543;SDS011;11950;51.230;4.012;2023-08-12T05:04:41;4.25;;;2.80;;
23543;SDS011;11950;51.230;4.012;2023-08-12T05:07:08;2.85;;;2.55;;
23543;SDS011;11950;51.230;4.012;2023-08-12T05:09:35;3.08;;;2.53;;
23543;SDS011;11950;51.230;4.012;2023-08-12T05:12:01;3.17;;;2.38;;
23543;SDS011;11950;51.230;4.012;2023-08-12T05:14:28;5.45;;;3.00;;
23543;SDS011;11950;51.230;4.012;2023-08-12T05:16:54;3.10;;;2.85;;
23543;SDS011;11950;51.230;4.012;2023-08-12T05:19:21;4.43;;;2.17;;
23543;SDS011;11950;51.230;4.012;2023-08-12T05:21:47;4.43;;;2.00;;
23543;SDS011;11950;51.230;4.012;2023-08-12T05:24:13;3.80;;;2.00;;
23543;SDS011;11950;51.230;4.012;2023-08-12T05:26:41;3.13;;;1.90;;
23543;SDS011;11950;51.230;4.012;2023-08-12T05:29:07;3.53;;;1.67;;
23543;SDS011;11950;51.230;4.012;2023-08-12T05:31:33;4.03;;;1.48;;
23543;SDS011;11950;51.230;4.012;2023-08-12T05:33:59;3.85;;;1.67;;
23543;SDS011;11950;51.230;4.012;2023-08-12T05:36:26;2.33;;;1.60;;
23543;SDS011;11950;51.230;4.012;2023-08-12T05:38:52;3.10;;;1.35;;
23543;SDS011;11950;51.230;4.012;2023-08-12T05:41:18;2.83;;;1.25;;
23543;SDS011;11950;51.230;4.012;2023-08-12T05:43:45;2.53;;;1.17;;
23543;SDS011;11950;51.230;4.012;2023-08-12T05:46:13;1.90;;;1.15;;
23543;SDS011;11950;51.230;4.012;2023-08-12T05:48:41;1.25;;;1.00;;
23543;SDS011;11950;51.230;4.012;2023-08-12T05:51:11;2.42;;;1.05;;
23543;SDS011;11950;51.230;4.012;2023-08-12T05:53:40;2.70;;;1.00;;
23543;SDS011;11950;51.230;4.012;2023-08-12T05:56:07;2.92;;;1.00;;
23543;SDS011;11950;51.230;4.012;2023-08-12T05:58:33;1.30;;;1.00;;
23543;SDS011;11950;51.230;4.012;2023-08-12T06:01:00;1.20;;;1.00;;
23543;SDS011;11950;51.230;4.012;2023-08-12T06:03:27;2.08;;;1.02;;
23543;SDS011;11950;51.230;4.012;2023-08-12T06:05:53;2.38;;;0.80;;
23543;SDS011;11950;51.230;4.012;2023-08-12T06:08:20;3.22;;;0.80;;
23543;SDS011;11950;51.230;4.012;2023-08-12T06:10:46;3.05;;;1.10;;
23543;SDS011;11950;51.230;4.012;2023-08-12T06:13:13;2.38;;;1.05;;
23543;SDS011;11950;51.230;4.012;2023-08-12T06:15:39;5.13;;;1.20;;
23543;SDS011;11950;51.230;4.012;2023-08-12T06:18:06;2.38;;;1.10;;
23543;SDS011;11950;51.230;4.012;2023-08-12T06:20:32;2.75;;;0.90;;
23543;SDS011;11950;51.230;4.012;2023-08-12T06:22:59;1.55;;;0.73;;
23543;SDS011;11950;51.230;4.012;2023-08-12T06:25:25;3.60;;;0.75;;
23543;SDS011;11950;51.230;4.012;2023-08-12T06:27:53;2.95;;;0.70;;
23543;SDS011;11950;51.230;4.012;2023-08-12T06:30:19;4.45;;;0.70;;
23543;SDS011;11950;51.230;4.012;2023-08-12T06:32:47;3.55;;;0.70;;
23543;SDS011;11950;51.230;4.012;2023-08-12T06:35:13;2.25;;;0.68;;
23543;SDS011;11950;51.230;4.012;2023-08-12T06:37:39;3.20;;;0.60;;
23543;SDS011;11950;51.230;4.012;2023-08-12T06:40:07;4.30;;;0.63;;
23543;SDS011;11950;51.230;4.012;2023-08-12T06:42:34;2.17;;;0.70;;
23543;SDS011;11950;51.230;4.012;2023-08-12T06:45:00;2.72;;;0.60;;
23543;SDS011;11950;51.230;4.012;2023-08-12T06:47:29;2.33;;;0.80;;
23543;SDS011;11950;51.230;4.012;2023-08-12T06:49:56;1.90;;;0.60;;
23543;SDS011;11950;51.230;4.012;2023-08-12T06:52:22;5.55;;;0.50;;
23543;SDS011;11950;51.230;4.012;2023-08-12T06:54:49;3.17;;;0.93;;
23543;SDS011;11950;51.230;4.012;2023-08-12T06:57:15;6.00;;;0.90;;
23543;SDS011;11950;51.230;4.012;2023-08-12T06:59:42;3.85;;;0.80;;
23543;SDS011;11950;51.230;4.012;2023-08-12T07:02:08;2.30;;;0.60;;
23543;SDS011;11950;51.230;4.012;2023-08-12T07:04:35;2.35;;;0.75;;
23543;SDS011;11950;51.230;4.012;2023-08-12T07:07:01;1.52;;;0.55;;
23543;SDS011;11950;51.230;4.012;2023-08-12T07:09:27;2.70;;;0.60;;
23543;SDS011;11950;51.230;4.012;2023-08-12T07:11:53;6.15;;;0.65;;
23543;SDS011;11950;51.230;4.012;2023-08-12T07:14:20;2.38;;;0.70;;
23543;SDS011;11950;51.230;4.012;2023-08-12T07:16:46;2.38;;;0.70;;
23543;SDS011;11950;51.230;4.012;2023-08-12T07:19:12;2.60;;;0.60;;
23543;SDS011;11950;51.230;4.012;2023-08-12T07:21:39;1.25;;;0.70;;
23543;SDS011;11950;51.230;4.012;2023-08-12T07:24:08;3.75;;;0.80;;
23543;SDS011;11950;51.230;4.012;2023-08-12T07:26:35;3.35;;;0.70;;
23543;SDS011;11950;51.230;4.012;2023-08-12T07:29:01;3.25;;;0.50;;
23543;SDS011;11950;51.230;4.012;2023-08-12T07:31:27;2.17;;;0.70;;
23543;SDS011;11950;51.230;4.012;2023-08-12T07:33:54;2.35;;;0.60;;
23543;SDS011;11950;51.230;4.012;2023-08-12T07:36:20;4.60;;;0.75;;
23543;SDS011;11950;51.230;4.012;2023-08-12T07:38:48;4.97;;;1.52;;
23543;SDS011;11950;51.230;4.012;2023-08-12T07:41:14;3.25;;;1.10;;
23543;SDS011;11950;51.230;4.012;2023-08-12T07:43:40;5.22;;;0.98;;
23543;SDS011;11950;51.230;4.012;2023-08-12T07:46:07;1.90;;;0.85;;
23543;SDS011;11950;51.230;4.012;2023-08-12T07:48:33;3.03;;;1.30;;
23543;SDS011;11950;51.230;4.012;2023-08-12T07:50:59;4.10;;;0.80;;
23543;SDS011;11950;51.230;4.012;2023-08-12T07:53:26;2.22;;;0.80;;
23543;SDS011;11950;51.230;4.012;2023-08-12T07:55:53;2.88;;;0.70;;
23543;SDS011;11950;51.230;4.012;2023-08-12T07:58:20;3.30;;;0.80;;
23543;SDS011;11950;51.230;4.012;2023-08-12T08:00:46;5.05;;;0.88;;
23543;SDS011;11950;51.230;4.012;2023-08-12T08:03:12;4.43;;;0.80;;
23543;SDS011;11950;51.230;4.012;2023-08-12T08:05:42;2.58;;;0.95;;
23543;SDS011;11950;51.230;4.012;2023-08-12T08:08:11;2.28;;;1.00;;
23543;SDS011;11950;51.230;4.012;2023-08-12T08:10:38;4.00;;;1.08;;
23543;SDS011;11950;51.230;4.012;2023-08-12T08:13:04;3.20;;;0.90;;
23543;SDS011;11950;51.230;4.012;2023-08-12T08:15:30;3.92;;;1.33;;
23543;SDS011;11950;51.230;4.012;2023-08-12T08:17:57;6.47;;;1.30;;
23543;SDS011;11950;51.230;4.012;2023-08-12T08:20:24;5.18;;;1.10;;
23543;SDS011;11950;51.230;4.012;2023-08-12T08:22:50;2.70;;;1.00;;
23543;SDS011;11950;51.230;4.012;2023-08-12T08:25:17;3.67;;;0.90;;
23543;SDS011;11950;51.230;4.012;2023-08-12T08:27:46;4.65;;;1.30;;
23543;SDS011;11950;51.230;4.012;2023-08-12T08:30:12;4.80;;;1.00;;
23543;SDS011;11950;51.230;4.012;2023-08-12T08:32:38;8.23;;;1.80;;
23543;SDS011;11950;51.230;4.012;2023-08-12T08:35:05;2.40;;;1.33;;
23543;SDS011;11950;51.230;4.012;2023-08-12T08:37:32;3.08;;;1.25;;
23543;SDS011;11950;51.230;4.012;2023-08-12T08:39:59;4.68;;;1.15;;
23543;SDS011;11950;51.230;4.012;2023-08-12T08:42:26;3.90;;;1.17;;
23543;SDS011;11950;51.230;4.012;2023-08-12T08:44:53;4.68;;;1.17;;
23543;SDS011;11950;51.230;4.012;2023-08-12T08:47:26;3.75;;;1.00;;
23543;SDS011;11950;51.230;4.012;2023-08-12T08:49:56;6.38;;;1.20;;
23543;SDS011;11950;51.230;4.012;2023-08-12T08:52:23;5.97;;;1.20;;
23543;SDS011;11950;51.230;4.012;2023-08-12T08:54:50;3.95;;;1.20;;
23543;SDS011;11950;51.230;4.012;2023-08-12T08:57:18;6.75;;;1.55;;
23543;SDS011;11950;51.230;4.012;2023-08-12T08:59:45;7.88;;;2.00;;
23543;SDS011;11950;51.230;4.012;2023-08-12T09:02:20;6.10;;;1.10;;
23543;SDS011;11950;51.230;4.012;2023-08-12T09:04:48;5.63;;;1.38;;
23543;SDS011;11950;51.230;4.012;2023-08-12T09:07:15;4.03;;;1.42;;
23543;SDS011;11950;51.230;4.012;2023-08-12T09:09:44;5.07;;;1.67;;
23543;SDS011;11950;51.230;4.012;2023-08-12T09:12:18;5.45;;;1.70;;
23543;SDS011;11950;51.230;4.012;2023-08-12T09:14:45;7.70;;;2.22;;
23543;SDS011;11950;51.230;4.012;2023-08-12T09:17:12;4.95;;;2.10;;
23543;SDS011;11950;51.230;4.012;2023-08-12T09:19:40;4.05;;;1.95;;
23543;SDS011;11950;51.230;4.012;2023-08-12T09:22:07;6.05;;;2.15;;
23543;SDS011;11950;51.230;4.012;2023-08-12T09:24:36;6.07;;;2.72;;
23543;SDS011;11950;51.230;4.012;2023-08-12T09:27:03;5.63;;;3.10;;
23543;SDS011;11950;51.230;4.012;2023-08-12T09:29:30;12.45;;;4.45;;
23543;SDS011;11950;51.230;4.012;2023-08-12T09:34:38;7.13;;;4.15;;
23543;SDS011;11950;51.230;4.012;2023-08-12T09:37:14;11.70;;;5.68;;
23543;SDS011;11950;51.230;4.012;2023-08-12T09:39:41;11.93;;;5.60;;
23543;SDS011;11950;51.230;4.012;2023-08-12T09:42:08;9.95;;;6.03;;
23543;SDS011;11950;51.230;4.012;2023-08-12T09:44:36;11.05;;;7.40;;
23543;SDS011;11950;51.230;4.012;2023-08-12T09:47:03;10.48;;;7.30;;
23543;SDS011;11950;51.230;4.012;2023-08-12T09:49:29;9.88;;;7.50;;
23543;SDS011;11950;51.230;4.012;2023-08-12T09:51:56;8.77;;;7.20;;
23543;SDS011;11950;51.230;4.012;2023-08-12T09:54:25;9.05;;;5.53;;
23543;SDS011;11950;51.230;4.012;2023-08-12T09:56:54;10.52;;;5.82;;
23543;SDS011;11950;51.230;4.012;2023-08-12T09:59:22;8.13;;;6.05;;
23543;SDS011;11950;51.230;4.012;2023-08-12T10:01:50;9.32;;;5.93;;
23543;SDS011;11950;51.230;4.012;2023-08-12T10:04:19;7.28;;;4.97;;
23543;SDS011;11950;51.230;4.012;2023-08-12T10:06:48;6.90;;;5.00;;
23543;SDS011;11950;51.230;4.012;2023-08-12T10:09:15;7.72;;;4.50;;
23543;SDS011;11950;51.230;4.012;2023-08-12T10:11:42;6.95;;;3.90;;
23543;SDS011;11950;51.230;4.012;2023-08-12T10:14:12;6.28;;;2.30;;
23543;SDS011;11950;51.230;4.012;2023-08-12T10:16:41;6.95;;;1.83;;
23543;SDS011;11950;51.230;4.012;2023-08-12T10:19:11;6.82;;;1.83;;
23543;SDS011;11950;51.230;4.012;2023-08-12T10:21:40;5.00;;;2.00;;
23543;SDS011;11950;51.230;4.012;2023-08-12T10:24:11;3.17;;;1.42;;
23543;SDS011;11950;51.230;4.012;2023-08-12T10:26:40;5.90;;;2.03;;
23543;SDS011;11950;51.230;4.012;2023-08-12T10:29:06;5.85;;;1.55;;
23543;SDS011;11950;51.230;4.012;2023-08-12T10:31:34;2.72;;;1.20;;
23543;SDS011;11950;51.230;4.012;2023-08-12T10:34:00;5.47;;;1.35;;
23543;SDS011;11950;51.230;4.012;2023-08-12T10:36:27;6.68;;;1.40;;
23543;SDS011;11950;51.230;4.012;2023-08-12T10:38:53;3.03;;;1.10;;
23543;SDS011;11950;51.230;4.012;2023-08-12T10:41:23;9.00;;;1.88;;
23543;SDS011;11950;51.230;4.012;2023-08-12T10:46:28;7.55;;;1.90;;
23543;SDS011;11950;51.230;4.012;2023-08-12T10:51:49;4.22;;;2.15;;
23543;SDS011;11950;51.230;4.012;2023-08-12T11:04:44;5.72;;;2.72;;
23543;SDS011;11950;51.230;4.012;2023-08-12T11:07:22;4.18;;;2.40;;
23543;SDS011;11950;51.230;4.012;2023-08-12T11:09:59;6.57;;;2.67;;
23543;SDS011;11950;51.230;4.012;2023-08-12T11:12:31;8.75;;;2.92;;
23543;SDS011;11950;51.230;4.012;2023-08-12T11:15:00;9.95;;;3.65;;
23543;SDS011;11950;51.230;4.012;2023-08-12T11:17:28;7.40;;;3.55;;
23543;SDS011;11950;51.230;4.012;2023-08-12T11:19:57;10.30;;;4.70;;
23543;SDS011;11950;51.230;4.012;2023-08-12T11:22:25;10.10;;;4.72;;
23543;SDS011;11950;51.230;4.012;2023-08-12T11:24:51;11.18;;;3.97;;
23543;SDS011;11950;51.230;4.012;2023-08-12T11:27:18;8.05;;;3.58;;
23543;SDS011;11950;51.230;4.012;2023-08-12T11:29:45;9.93;;;3.45;;
23543;SDS011;11950;51.230;4.012;2023-08-12T11:32:11;5.63;;;2.53;;
23543;SDS011;11950;51.230;4.012;2023-08-12T11:34:37;7.13;;;2.75;;
23543;SDS011;11950;51.230;4.012;2023-08-12T11:37:05;5.13;;;2.53;;
23543;SDS011;11950;51.230;4.012;2023-08-12T11:39:32;9.07;;;3.25;;
23543;SDS011;11950;51.230;4.012;2023-08-12T11:41:58;7.07;;;2.40;;
23543;SDS011;11950;51.230;4.012;2023-08-12T11:44:24;7.10;;;2.85;;
23543;SDS011;11950;51.230;4.012;2023-08-12T11:46:51;5.80;;;2.38;;
23543;SDS011;11950;51.230;4.012;2023-08-12T11:49:17;4.53;;;2.35;;
23543;SDS011;11950;51.230;4.012;2023-08-12T11:51:43;7.32;;;2.35;;
23543;SDS011;11950;51.230;4.012;2023-08-12T11:54:13;6.80;;;2.30;;
23543;SDS011;11950;51.230;4.012;2023-08-12T11:56:40;7.88;;;1.70;;
23543;SDS011;11950;51.230;4.012;2023-08-12T11:59:08;5.13;;;1.55;;
23543;SDS011;11950;51.230;4.012;2023-08-12T12:01:34;4.20;;;1.52;;
23543;SDS011;11950;51.230;4.012;2023-08-12T12:04:00;7.32;;;1.60;;
23543;SDS011;11950;51.230;4.012;2023-08-12T12:06:31;5.80;;;1.70;;
23543;SDS011;11950;51.230;4.012;2023-08-12T12:09:08;5.60;;;1.88;;
23543;SDS011;11950;51.230;4.012;2023-08-12T12:11:35;5.88;;;1.73;;
23543;SDS011;11950;51.230;4.012;2023-08-12T12:14:05;4.28;;;1.50;;
23543;SDS011;11950;51.230;4.012;2023-08-12T12:16:43;6.22;;;1.30;;
23543;SDS011;11950;51.230;4.012;2023-08-12T12:19:16;5.35;;;2.08;;
23543;SDS011;11950;51.230;4.012;2023-08-12T12:21:47;4.90;;;1.75;;
23543;SDS011;11950;51.230;4.012;2023-08-12T12:24:15;4.95;;;1.90;;
23543;SDS011;11950;51.230;4.012;2023-08-12T12:26:43;6.78;;;1.88;;
23543;SDS011;11950;51.230;4.012;2023-08-12T12:29:13;8.07;;;1.65;;
23543;SDS011;11950;51.230;4.012;2023-08-12T12:31:40;3.80;;;1.50;;
23543;SDS011;11950;51.230;4.012;2023-08-12T12:34:07;5.93;;;1.98;;
23543;SDS011;11950;51.230;4.012;2023-08-12T12:36:35;6.43;;;1.70;;
23543;SDS011;11950;51.230;4.012;2023-08-12T12:39:02;7.15;;;1.50;;
23543;SDS011;11950;51.230;4.012;2023-08-12T12:41:31;4.53;;;1.70;;
23543;SDS011;11950;51.230;4.012;2023-08-12T12:44:01;4.47;;;1.60;;
23543;SDS011;11950;51.230;4.012;2023-08-12T12:46:28;8.50;;;1.80;;
23543;SDS011;11950;51.230;4.012;2023-08-12T12:48:55;5.88;;;1.45;;
23543;SDS011;11950;51.230;4.012;2023-08-12T12:51:21;4.85;;;1.30;;
23543;SDS011;11950;51.230;4.012;2023-08-12T12:53:47;4.95;;;1.60;;
23543;SDS011;11950;51.230;4.012;2023-08-12T12:56:14;5.03;;;1.23;;
23543;SDS011;11950;51.230;4.012;2023-08-12T12:58:40;7.35;;;1.48;;
23543;SDS011;11950;51.230;4.012;2023-08-12T13:01:06;4.65;;;1.30;;
23543;SDS011;11950;51.230;4.012;2023-08-12T13:03:32;2.78;;;1.10;;
23543;SDS011;11950;51.230;4.012;2023-08-12T13:05:59;4.60;;;1.00;;
23543;SDS011;11950;51.230;4.012;2023-08-12T13:08:28;4.13;;;1.00;;
23543;SDS011;11950;51.230;4.012;2023-08-12T13:10:55;4.45;;;1.00;;
23543;SDS011;11950;51.230;4.012;2023-08-12T13:13:22;5.05;;;1.08;;
23543;SDS011;11950;51.230;4.012;2023-08-12T13:15:48;5.90;;;0.98;;
23543;SDS011;11950;51.230;4.012;2023-08-12T13:18:14;5.35;;;0.95;;
23543;SDS011;11950;51.230;4.012;2023-08-12T13:20:41;5.60;;;0.90;;
23543;SDS011;11950;51.230;4.012;2023-08-12T13:23:07;4.28;;;0.90;;
23543;SDS011;11950;51.230;4.012;2023-08-12T13:25:33;4.03;;;1.10;;
23543;SDS011;11950;51.230;4.012;2023-08-12T13:28:00;3.42;;;0.90;;
23543;SDS011;11950;51.230;4.012;2023-08-12T13:30:28;3.38;;;0.90;;
23543;SDS011;11950;51.230;4.012;2023-08-12T13:32:55;3.67;;;0.93;;
23543;SDS011;11950;51.230;4.012;2023-08-12T13:35:21;5.15;;;0.90;;
23543;SDS011;11950;51.230;4.012;2023-08-12T13:37:49;3.90;;;1.00;;
23543;SDS011;11950;51.230;4.012;2023-08-12T13:40:16;5.50;;;1.10;;
23543;SDS011;11950;51.230;4.012;2023-08-12T13:42:43;7.10;;;1.10;;
23543;SDS011;11950;51.230;4.012;2023-08-12T13:45:11;6.97;;;1.27;;
23543;SDS011;11950;51.230;4.012;2023-08-12T13:47:38;4.70;;;1.10;;
23543;SDS011;11950;51.230;4.012;2023-08-12T13:50:05;6.65;;;1.08;;
23543;SDS011;11950;51.230;4.012;2023-08-12T13:52:31;7.80;;;1.20;;
23543;SDS011;11950;51.230;4.012;2023-08-12T13:54:58;4.15;;;0.90;;
23543;SDS011;11950;51.230;4.012;2023-08-12T13:57:24;2.60;;;0.82;;
23543;SDS011;11950;51.230;4.012;2023-08-12T13:59:51;5.38;;;1.00;;
23543;SDS011;11950;51.230;4.012;2023-08-12T14:02:17;6.93;;;1.00;;
23543;SDS011;11950;51.230;4.012;2023-08-12T14:04:44;4.25;;;0.93;;
23543;SDS011;11950;51.230;4.012;2023-08-12T14:07:10;5.75;;;1.02;;
23543;SDS011;11950;51.230;4.012;2023-08-12T14:09:36;4.82;;;1.13;;
23543;SDS011;11950;51.230;4.012;2023-08-12T14:12:02;5.57;;;1.17;;
23543;SDS011;11950;51.230;4.012;2023-08-12T14:14:29;9.13;;;1.27;;
23543;SDS011;11950;51.230;4.012;2023-08-12T14:16:56;8.75;;;1.17;;
23543;SDS011;11950;51.230;4.012;2023-08-12T14:19:25;6.93;;;1.15;;
23543;SDS011;11950;51.230;4.012;2023-08-12T14:21:51;5.57;;;1.27;;
23543;SDS011;11950;51.230;4.012;2023-08-12T14:24:17;3.85;;;1.08;;
23543;SDS011;11950;51.230;4.012;2023-08-12T14:26:44;7.82;;;1.30;;
23543;SDS011;11950;51.230;4.012;2023-08-12T14:29:10;8.45;;;1.15;;
23543;SDS011;11950;51.230;4.012;2023-08-12T14:31:36;3.63;;;1.08;;
23543;SDS011;11950;51.230;4.012;2023-08-12T14:34:02;4.32;;;1.08;;
23543;SDS011;11950;51.230;4.012;2023-08-12T14:36:29;6.68;;;1.17;;
23543;SDS011;11950;51.230;4.012;2023-08-12T14:38:57;5.78;;;1.20;;
23543;SDS011;11950;51.230;4.012;2023-08-12T14:41:23;6.55;;;1.20;;
23543;SDS011;11950;51.230;4.012;2023-08-12T14:43:50;8.32;;;1.77;;
23543;SDS011;11950;51.230;4.012;2023-08-12T14:46:16;6.93;;;1.17;;
23543;SDS011;11950;51.230;4.012;2023-08-12T14:48:42;7.72;;;1.08;;
23543;SDS011;11950;51.230;4.012;2023-08-12T14:51:09;3.72;;;1.00;;
23543;SDS011;11950;51.230;4.012;2023-08-12T14:53:35;6.90;;;1.15;;
23543;SDS011;11950;51.230;4.012;2023-08-12T14:56:02;8.40;;;1.15;;
23543;SDS011;11950;51.230;4.012;2023-08-12T14:58:28;5.68;;;1.25;;
23543;SDS011;11950;51.230;4.012;2023-08-12T15:00:54;4.90;;;0.98;;
23543;SDS011;11950;51.230;4.012;2023-08-12T15:03:22;5.28;;;1.00;;
23543;SDS011;11950;51.230;4.012;2023-08-12T15:05:57;9.20;;;1.42;;
23543;SDS011;11950;51.230;4.012;2023-08-12T15:08:29;8.88;;;1.10;;
23543;SDS011;11950;51.230;4.012;2023-08-12T15:10:57;5.55;;;1.60;;
23543;SDS011;11950;51.230;4.012;2023-08-12T15:13:23;8.02;;;1.20;;
23543;SDS011;11950;51.230;4.012;2023-08-12T15:15:50;7.90;;;1.20;;